createdAt,value
2018-03-07T00:01:02.022Z,4.38
2018-03-07T00:02:08.886Z,4.34
2018-03-07T00:03:15.708Z,4.35
2018-03-07T00:04:22.442Z,4.31
2018-03-07T00:05:29.174Z,4.29
2018-03-07T00:06:36.063Z,4.28
2018-03-07T00:07:42.817Z,4.26
2018-03-07T00:08:49.607Z,4.24
2018-03-07T00:09:56.426Z,4.21
2018-03-07T00:11:03.206Z,4.19
2018-03-07T00:12:09.997Z,4.18
2018-03-07T00:13:16.837Z,4.15
2018-03-07T00:14:23.716Z,4.15
2018-03-07T00:15:30.425Z,4.13
2018-03-07T00:16:37.256Z,4.10
2018-03-07T00:17:43.999Z,4.08
2018-03-07T00:18:50.857Z,4.07
2018-03-07T00:19:57.670Z,4.05
2018-03-07T00:21:04.452Z,4.04
2018-03-07T00:22:11.171Z,4.04
2018-03-07T00:23:18.093Z,4.01
2018-03-07T00:24:24.840Z,4.00
2018-03-07T00:25:31.621Z,3.97
2018-03-07T00:26:38.506Z,3.96
2018-03-07T00:27:45.266Z,3.95
2018-03-07T00:28:51.996Z,3.94
2018-03-07T00:29:58.734Z,3.92
2018-03-07T00:31:05.565Z,3.90
2018-03-07T00:32:12.308Z,3.88
2018-03-07T00:33:19.084Z,3.87
2018-03-07T00:34:25.829Z,3.86
2018-03-07T00:35:32.590Z,3.83
2018-03-07T00:36:39.385Z,3.81
2018-03-07T00:37:46.117Z,3.81
2018-03-07T00:38:52.880Z,3.80
2018-03-07T00:39:59.702Z,3.80
2018-03-07T00:41:06.485Z,3.77
2018-03-07T00:42:13.224Z,3.77
2018-03-07T00:43:20.053Z,3.74
2018-03-07T00:44:26.793Z,3.74
2018-03-07T00:45:33.597Z,3.73
2018-03-07T00:46:40.369Z,3.70
2018-03-07T00:47:47.117Z,3.70
2018-03-07T00:48:53.864Z,3.68
2018-03-07T00:50:00.648Z,3.68
2018-03-07T00:51:07.533Z,3.67
2018-03-07T00:52:14.284Z,3.65
2018-03-07T00:53:21.032Z,3.62
2018-03-07T00:54:27.793Z,3.63
2018-03-07T00:55:34.596Z,3.61
2018-03-07T00:56:41.328Z,3.60
2018-03-07T00:57:48.084Z,3.59
2018-03-07T00:58:54.825Z,3.58
2018-03-07T01:00:01.682Z,3.56
2018-03-07T01:01:08.521Z,3.54
2018-03-07T01:02:15.264Z,3.55
2018-03-07T01:03:22.161Z,3.54
2018-03-07T01:04:28.924Z,3.53
2018-03-07T01:05:35.673Z,3.51
2018-03-07T01:06:42.536Z,3.50
2018-03-07T01:07:49.288Z,3.51
2018-03-07T01:08:56.020Z,3.49
2018-03-07T01:10:02.772Z,3.47
2018-03-07T01:11:09.580Z,3.47
2018-03-07T01:12:16.338Z,3.45
2018-03-07T01:13:23.104Z,3.45
2018-03-07T01:14:29.863Z,3.44
2018-03-07T01:15:36.657Z,3.43
2018-03-07T01:16:43.432Z,3.41
2018-03-07T01:17:50.190Z,3.39
2018-03-07T01:18:56.959Z,3.39
2018-03-07T01:20:04.005Z,3.38
2018-03-07T01:21:10.773Z,3.37
2018-03-07T01:22:17.517Z,3.36
2018-03-07T01:23:24.527Z,3.37
2018-03-07T01:24:31.304Z,3.36
2018-03-07T01:25:38.084Z,3.34
2018-03-07T01:26:45.098Z,3.34
2018-03-07T01:27:51.869Z,3.31
2018-03-07T01:28:58.629Z,3.32
2018-03-07T01:30:05.380Z,3.31
2018-03-07T01:31:12.185Z,3.30
2018-03-07T01:32:18.949Z,3.30
2018-03-07T01:33:25.724Z,3.27
2018-03-07T01:34:32.461Z,3.28
2018-03-07T01:35:39.266Z,3.27
2018-03-07T01:36:46.036Z,3.26
2018-03-07T01:37:52.773Z,3.24
2018-03-07T01:38:59.519Z,3.25
2018-03-07T01:40:06.377Z,3.23
2018-03-07T01:41:13.518Z,3.24
2018-03-07T01:42:20.272Z,3.20
2018-03-07T01:43:27.036Z,3.21
2018-03-07T01:44:33.799Z,3.20
2018-03-07T01:45:40.580Z,3.20
2018-03-07T01:46:47.357Z,3.18
2018-03-07T01:47:54.134Z,3.19
2018-03-07T01:49:01.011Z,3.17
2018-03-07T01:50:07.825Z,3.17
2018-03-07T01:51:14.632Z,3.16
2018-03-07T01:52:21.445Z,3.16
2018-03-07T01:53:28.201Z,3.14
2018-03-07T01:54:34.942Z,3.15
2018-03-07T01:55:41.689Z,3.13
2018-03-07T01:56:48.542Z,3.13
2018-03-07T01:57:55.318Z,3.12
2018-03-07T01:59:02.098Z,3.10
2018-03-07T02:00:08.937Z,3.11
2018-03-07T02:01:15.693Z,3.10
2018-03-07T02:02:22.452Z,3.09
2018-03-07T02:03:29.196Z,3.10
2018-03-07T02:04:35.968Z,3.09
2018-03-07T02:05:43.116Z,3.09
2018-03-07T02:06:49.882Z,3.08
2018-03-07T02:07:56.634Z,3.07
2018-03-07T02:09:03.484Z,3.06
2018-03-07T02:11:17.342Z,3.06
2018-03-07T02:12:24.085Z,3.05
2018-03-07T02:13:30.845Z,3.05
2018-03-07T02:14:37.572Z,3.06
2018-03-07T02:15:44.386Z,3.03
2018-03-07T02:16:51.185Z,3.03
2018-03-07T02:17:57.941Z,3.01
2018-03-07T02:19:04.801Z,3.02
2018-03-07T02:20:11.544Z,3.01
2018-03-07T02:21:18.304Z,3.00
2018-03-07T02:22:25.062Z,2.99
2018-03-07T02:23:31.885Z,2.98
2018-03-07T02:24:38.648Z,2.99
2018-03-07T02:25:45.449Z,2.99
2018-03-07T02:26:52.427Z,2.98
2018-03-07T02:27:59.157Z,2.98
2018-03-07T02:29:05.925Z,2.97
2018-03-07T02:30:12.746Z,2.95
2018-03-07T02:31:19.561Z,2.96
2018-03-07T02:32:26.410Z,2.96
2018-03-07T02:33:33.198Z,2.94
2018-03-07T02:34:39.962Z,2.95
2018-03-07T02:35:46.977Z,2.94
2018-03-07T02:36:53.744Z,2.94
2018-03-07T02:38:00.515Z,2.93
2018-03-07T02:39:07.254Z,2.93
2018-03-07T02:40:14.054Z,2.93
2018-03-07T02:41:20.816Z,2.93
2018-03-07T02:42:27.626Z,2.92
2018-03-07T02:43:34.490Z,2.91
2018-03-07T02:44:41.242Z,2.90
2018-03-07T02:45:48.023Z,2.91
2018-03-07T02:46:54.780Z,2.91
2018-03-07T02:48:01.682Z,2.91
2018-03-07T02:49:08.450Z,2.89
2018-03-07T02:50:15.205Z,2.89
2018-03-07T02:51:22.032Z,2.89
2018-03-07T02:52:28.817Z,2.87
2018-03-07T02:53:35.577Z,2.87
2018-03-07T02:54:42.320Z,2.88
2018-03-07T02:55:49.114Z,2.87
2018-03-07T02:56:55.897Z,2.86
2018-03-07T02:58:02.683Z,2.86
2018-03-07T02:59:09.425Z,2.86
2018-03-07T03:00:16.231Z,2.84
2018-03-07T03:01:23.020Z,2.86
2018-03-07T03:02:29.794Z,2.85
2018-03-07T03:03:36.546Z,2.85
2018-03-07T03:04:43.318Z,2.85
2018-03-07T03:05:50.075Z,2.83
2018-03-07T03:06:56.878Z,2.84
2018-03-07T03:08:03.740Z,2.83
2018-03-07T03:09:10.460Z,2.83
2018-03-07T03:10:17.219Z,2.81
2018-03-07T03:11:23.977Z,2.84
2018-03-07T03:12:30.870Z,2.81
2018-03-07T03:13:37.620Z,2.81
2018-03-07T03:14:44.371Z,2.81
2018-03-07T03:15:51.124Z,2.80
2018-03-07T03:16:57.926Z,2.80
2018-03-07T03:18:04.671Z,2.80
2018-03-07T03:19:11.445Z,2.79
2018-03-07T03:20:18.180Z,2.80
2018-03-07T03:21:24.968Z,2.80
2018-03-07T03:22:31.784Z,2.79
2018-03-07T03:23:38.534Z,2.78
2018-03-07T03:24:45.387Z,2.79
2018-03-07T03:25:52.106Z,2.77
2018-03-07T03:26:58.803Z,2.78
2018-03-07T03:28:05.519Z,2.78
2018-03-07T03:29:12.204Z,2.79
2018-03-07T03:30:18.893Z,2.78
2018-03-07T03:31:25.580Z,2.77
2018-03-07T03:32:32.392Z,2.77
2018-03-07T03:33:39.115Z,2.76
2018-03-07T03:34:45.813Z,2.76
2018-03-07T03:35:52.521Z,2.76
2018-03-07T03:36:59.284Z,2.76
2018-03-07T03:38:06.032Z,2.75
2018-03-07T03:39:12.705Z,2.75
2018-03-07T03:40:19.372Z,2.75
2018-03-07T03:41:26.071Z,2.76
2018-03-07T03:42:32.757Z,2.75
2018-03-07T03:43:39.557Z,2.74
2018-03-07T03:44:46.425Z,2.74
2018-03-07T03:45:53.101Z,2.75
2018-03-07T03:46:59.831Z,2.73
2018-03-07T03:48:06.503Z,2.73
2018-03-07T03:49:13.189Z,2.74
2018-03-07T03:50:19.856Z,2.74
2018-03-07T03:51:26.620Z,2.74
2018-03-07T03:52:33.329Z,2.74
2018-03-07T03:53:40.058Z,2.72
2018-03-07T03:54:46.776Z,2.74
2018-03-07T03:55:53.448Z,2.73
2018-03-07T03:57:00.140Z,2.74
2018-03-07T03:58:06.820Z,2.74
2018-03-07T03:59:13.570Z,2.72
2018-03-07T04:00:20.737Z,2.73
2018-03-07T04:01:27.696Z,2.73
2018-03-07T04:02:34.503Z,2.72
2018-03-07T04:03:41.216Z,2.72
2018-03-07T04:04:48.317Z,2.72
2018-03-07T04:05:55.012Z,2.72
2018-03-07T04:07:01.716Z,2.72
2018-03-07T04:08:08.421Z,2.72
2018-03-07T04:09:15.092Z,2.72
2018-03-07T04:10:22.266Z,2.72
2018-03-07T04:11:29.066Z,2.72
2018-03-07T04:12:35.770Z,2.71
2018-03-07T04:13:42.447Z,2.71
2018-03-07T04:14:49.151Z,2.69
2018-03-07T04:15:56.324Z,2.71
2018-03-07T04:17:03.011Z,2.72
2018-03-07T04:18:10.014Z,2.72
2018-03-07T04:19:16.831Z,2.73
2018-03-07T04:20:23.592Z,2.71
2018-03-07T04:21:30.277Z,2.71
2018-03-07T04:22:37.004Z,2.71
2018-03-07T04:23:43.668Z,2.71
2018-03-07T04:24:50.377Z,2.72
2018-03-07T04:25:57.201Z,2.71
2018-03-07T04:27:03.901Z,2.71
2018-03-07T04:28:10.638Z,2.71
2018-03-07T04:29:17.357Z,2.71
2018-03-07T04:30:24.052Z,2.71
2018-03-07T04:31:30.796Z,2.72
2018-03-07T04:32:37.485Z,2.71
2018-03-07T04:33:44.219Z,2.71
2018-03-07T04:34:50.936Z,2.71
2018-03-07T04:35:57.637Z,2.71
2018-03-07T04:37:04.347Z,2.72
2018-03-07T04:38:11.092Z,2.72
2018-03-07T04:39:17.770Z,2.71
2018-03-07T04:40:24.484Z,2.72
2018-03-07T04:41:31.183Z,2.71
2018-03-07T04:42:37.918Z,2.71
2018-03-07T04:43:44.621Z,2.71
2018-03-07T04:44:51.394Z,2.71
2018-03-07T04:45:58.097Z,2.71
2018-03-07T04:47:04.872Z,2.72
2018-03-07T04:48:11.663Z,2.71
2018-03-07T04:49:18.408Z,2.71
2018-03-07T04:50:25.094Z,2.71
2018-03-07T04:51:32.281Z,2.71
2018-03-07T04:52:38.984Z,2.72
2018-03-07T04:53:45.704Z,2.71
2018-03-07T04:54:52.437Z,2.70
2018-03-07T04:55:59.208Z,2.70
2018-03-07T04:57:05.912Z,2.71
2018-03-07T04:58:12.709Z,2.71
2018-03-07T04:59:19.421Z,2.70
2018-03-07T05:00:26.240Z,2.71
2018-03-07T05:01:32.909Z,2.71
2018-03-07T05:02:39.710Z,2.72
2018-03-07T05:03:46.385Z,2.72
2018-03-07T05:04:53.256Z,2.72
2018-03-07T05:05:59.941Z,2.71
2018-03-07T05:07:06.644Z,2.73
2018-03-07T05:08:13.440Z,2.71
2018-03-07T05:09:20.168Z,2.72
2018-03-07T05:10:26.905Z,2.71
2018-03-07T05:11:33.597Z,2.71
2018-03-07T05:12:40.321Z,2.72
2018-03-07T05:13:47.056Z,2.72
2018-03-07T05:14:53.973Z,2.73
2018-03-07T05:16:00.652Z,2.72
2018-03-07T05:17:07.381Z,2.71
2018-03-07T05:18:14.153Z,2.72
2018-03-07T05:19:20.866Z,2.71
2018-03-07T05:20:27.584Z,2.71
2018-03-07T05:21:34.288Z,2.73
2018-03-07T05:22:41.029Z,2.72
2018-03-07T05:23:47.741Z,2.73
2018-03-07T05:24:54.449Z,2.73
2018-03-07T05:26:01.228Z,2.74
2018-03-07T05:27:07.927Z,2.73
2018-03-07T05:28:14.635Z,2.73
2018-03-07T05:29:21.329Z,2.73
2018-03-07T05:30:28.045Z,2.73
2018-03-07T05:31:35.199Z,2.73
2018-03-07T05:32:42.388Z,2.73
2018-03-07T05:33:49.463Z,2.74
2018-03-07T05:34:56.128Z,2.73
2018-03-07T05:36:02.908Z,2.73
2018-03-07T05:37:09.597Z,2.73
2018-03-07T05:38:16.287Z,2.73
2018-03-07T05:39:22.960Z,2.73
2018-03-07T05:40:29.703Z,2.74
2018-03-07T05:41:36.861Z,2.74
2018-03-07T05:42:43.567Z,2.73
2018-03-07T05:43:50.285Z,2.74
2018-03-07T05:44:56.972Z,2.73
2018-03-07T05:46:03.677Z,2.74
2018-03-07T05:47:10.386Z,2.73
2018-03-07T05:48:17.117Z,2.74
2018-03-07T05:49:23.788Z,2.74
2018-03-07T05:50:30.928Z,2.74
2018-03-07T05:51:38.100Z,2.73
2018-03-07T05:52:44.876Z,2.73
2018-03-07T05:53:51.613Z,2.74
2018-03-07T05:54:58.301Z,2.75
2018-03-07T05:56:05.008Z,2.75
2018-03-07T05:57:11.672Z,2.75
2018-03-07T05:58:18.371Z,2.74
2018-03-07T05:59:25.166Z,2.75
2018-03-07T06:00:31.858Z,2.75
2018-03-07T06:01:38.556Z,2.75
2018-03-07T06:02:45.229Z,2.75
2018-03-07T06:03:52.000Z,2.75
2018-03-07T06:04:58.748Z,2.75
2018-03-07T06:06:05.926Z,2.77
2018-03-07T06:07:12.595Z,2.77
2018-03-07T06:08:19.330Z,2.77
2018-03-07T06:09:26.041Z,2.76
2018-03-07T06:10:32.946Z,2.77
2018-03-07T06:11:39.473Z,2.76
2018-03-07T06:12:46.148Z,2.75
2018-03-07T06:13:52.850Z,2.77
2018-03-07T06:14:59.550Z,2.77
2018-03-07T06:16:06.232Z,2.77
2018-03-07T06:17:12.985Z,2.76
2018-03-07T06:18:19.652Z,2.78
2018-03-07T06:19:26.428Z,2.78
2018-03-07T06:20:33.109Z,2.77
2018-03-07T06:21:39.781Z,2.78
2018-03-07T06:22:46.466Z,2.78
2018-03-07T06:23:53.205Z,2.78
2018-03-07T06:24:59.879Z,2.79
2018-03-07T06:26:06.596Z,2.78
2018-03-07T06:27:13.313Z,2.79
2018-03-07T06:28:19.971Z,2.78
2018-03-07T06:29:27.120Z,2.79
2018-03-07T06:30:34.290Z,2.79
2018-03-07T06:31:40.954Z,2.78
2018-03-07T06:32:47.652Z,2.80
2018-03-07T06:33:54.358Z,2.80
2018-03-07T06:35:01.053Z,2.79
2018-03-07T06:36:07.776Z,2.78
2018-03-07T06:37:14.488Z,2.79
2018-03-07T06:38:21.158Z,2.80
2018-03-07T06:39:27.898Z,2.81
2018-03-07T06:40:35.070Z,2.80
2018-03-07T06:41:41.776Z,2.81
2018-03-07T06:42:48.465Z,2.81
2018-03-07T06:43:55.148Z,2.81
2018-03-07T06:45:01.816Z,2.81
2018-03-07T06:46:08.652Z,2.80
2018-03-07T06:47:15.353Z,2.81
2018-03-07T06:48:22.049Z,2.83
2018-03-07T06:49:28.732Z,2.81
2018-03-07T06:50:35.418Z,2.82
2018-03-07T06:51:42.120Z,2.83
2018-03-07T06:51:59.981Z,2.81
2018-03-07T06:53:07.159Z,2.83
2018-03-07T06:54:13.808Z,2.82
2018-03-07T06:55:20.959Z,2.84
2018-03-07T06:56:27.683Z,2.85
2018-03-07T06:57:34.372Z,2.86
2018-03-07T06:58:41.154Z,2.86
2018-03-07T06:59:47.792Z,2.86
2018-03-07T07:00:54.486Z,2.86
2018-03-07T07:02:01.218Z,2.87
2018-03-07T07:03:07.894Z,2.86
2018-03-07T07:04:15.079Z,2.87
2018-03-07T07:05:21.782Z,2.86
2018-03-07T07:06:28.539Z,2.87
2018-03-07T07:07:35.278Z,2.87
2018-03-07T07:08:41.973Z,2.87
2018-03-07T07:09:48.713Z,2.87
2018-03-07T07:10:55.348Z,2.87
2018-03-07T07:12:02.513Z,2.87
2018-03-07T07:13:09.220Z,2.89
2018-03-07T07:14:15.970Z,2.88
2018-03-07T07:15:22.653Z,2.88
2018-03-07T07:16:29.337Z,2.88
2018-03-07T07:17:36.037Z,2.87
2018-03-07T07:18:42.739Z,2.89
2018-03-07T07:19:49.429Z,2.88
2018-03-07T07:20:56.104Z,2.89
2018-03-07T07:22:02.787Z,2.88
2018-03-07T07:23:09.541Z,2.89
2018-03-07T07:24:16.224Z,2.90
2018-03-07T07:25:22.895Z,2.90
2018-03-07T07:26:29.628Z,2.88
2018-03-07T07:27:36.403Z,2.90
2018-03-07T07:28:43.106Z,2.90
2018-03-07T07:29:49.840Z,2.90
2018-03-07T07:30:56.547Z,2.91
2018-03-07T07:32:03.261Z,2.90
2018-03-07T07:33:10.052Z,2.92
2018-03-07T07:34:16.769Z,2.90
2018-03-07T07:35:23.508Z,2.93
2018-03-07T07:36:30.184Z,2.93
2018-03-07T07:37:36.904Z,2.94
2018-03-07T07:38:43.660Z,2.93
2018-03-07T07:39:50.365Z,2.93
2018-03-07T07:40:57.054Z,2.93
2018-03-07T07:42:03.844Z,2.94
2018-03-07T07:43:10.614Z,2.94
2018-03-07T07:44:17.377Z,2.94
2018-03-07T07:45:24.079Z,2.94
2018-03-07T07:46:30.879Z,2.94
2018-03-07T07:47:37.587Z,2.94
2018-03-07T07:48:44.287Z,2.94
2018-03-07T07:49:51.077Z,2.96
2018-03-07T07:50:57.881Z,2.96
2018-03-07T07:52:04.578Z,2.98
2018-03-07T07:53:11.310Z,2.98
2018-03-07T07:54:18.017Z,2.98
2018-03-07T07:55:24.756Z,2.96
2018-03-07T07:56:31.507Z,2.98
2018-03-07T07:57:38.234Z,2.98
2018-03-07T07:58:44.937Z,2.98
2018-03-07T07:59:51.662Z,3.00
2018-03-07T08:00:58.397Z,3.01
2018-03-07T08:02:05.109Z,3.01
2018-03-07T08:03:11.824Z,3.02
2018-03-07T08:04:18.556Z,3.01
2018-03-07T08:05:25.297Z,3.03
2018-03-07T08:06:32.102Z,3.01
2018-03-07T08:07:38.798Z,3.01
2018-03-07T08:08:45.518Z,3.03
2018-03-07T08:09:52.571Z,3.02
2018-03-07T08:10:59.380Z,3.03
2018-03-07T08:12:06.118Z,3.04
2018-03-07T08:13:12.764Z,3.04
2018-03-07T08:14:19.560Z,3.05
2018-03-07T08:15:26.228Z,3.06
2018-03-07T08:16:32.974Z,3.06
2018-03-07T08:17:39.685Z,3.06
2018-03-07T08:18:46.384Z,3.08
2018-03-07T08:19:53.081Z,3.08
2018-03-07T08:20:59.924Z,3.08
2018-03-07T08:22:06.642Z,3.09
2018-03-07T08:23:13.361Z,3.09
2018-03-07T08:24:20.100Z,3.09
2018-03-07T08:25:26.831Z,3.10
2018-03-07T08:26:33.589Z,3.10
2018-03-07T08:27:40.304Z,3.12
2018-03-07T08:28:47.017Z,3.11
2018-03-07T08:29:53.749Z,3.13
2018-03-07T08:31:00.442Z,3.12
2018-03-07T08:32:07.261Z,3.13
2018-03-07T08:33:14.052Z,3.14
2018-03-07T08:34:20.765Z,3.14
2018-03-07T08:35:27.488Z,3.14
2018-03-07T08:36:34.460Z,3.15
2018-03-07T08:37:41.343Z,3.15
2018-03-07T08:38:48.121Z,3.17
2018-03-07T08:39:54.833Z,3.17
2018-03-07T08:41:01.577Z,3.17
2018-03-07T08:42:08.321Z,3.18
2018-03-07T08:43:15.146Z,3.20
2018-03-07T08:44:21.847Z,3.19
2018-03-07T08:45:28.561Z,3.20
2018-03-07T08:46:35.354Z,3.21
2018-03-07T08:47:42.083Z,3.22
2018-03-07T08:48:48.805Z,3.25
2018-03-07T08:49:55.628Z,3.25
2018-03-07T08:51:02.412Z,3.25
2018-03-07T08:52:09.297Z,3.25
2018-03-07T08:53:16.231Z,3.28
2018-03-07T08:54:23.237Z,3.29
2018-03-07T08:55:29.970Z,3.29
2018-03-07T08:56:36.940Z,3.29
2018-03-07T08:57:43.612Z,3.30
2018-03-07T08:58:50.412Z,3.31
2018-03-07T08:59:57.310Z,3.33
2018-03-07T09:01:04.492Z,3.33
2018-03-07T09:02:10.980Z,3.34
2018-03-07T09:03:17.605Z,3.35
2018-03-07T09:04:24.297Z,3.36
2018-03-07T09:05:31.060Z,3.38
2018-03-07T09:06:37.767Z,3.39
2018-03-07T09:08:51.217Z,3.40
2018-03-07T09:09:57.968Z,3.42
2018-03-07T09:11:04.700Z,3.42
2018-03-07T09:12:11.408Z,3.44
2018-03-07T09:13:18.241Z,3.45
2018-03-07T09:14:25.010Z,3.45
2018-03-07T09:15:31.764Z,3.46
2018-03-07T09:16:38.476Z,3.48
2018-03-07T09:17:45.507Z,3.49
2018-03-07T09:18:52.273Z,3.49
2018-03-07T09:19:59.046Z,3.50
2018-03-07T09:21:05.736Z,3.51
2018-03-07T09:22:12.614Z,3.53
2018-03-07T09:23:19.453Z,3.53
2018-03-07T09:24:26.204Z,3.53
2018-03-07T09:25:32.912Z,3.55
2018-03-07T09:26:39.640Z,3.55
2018-03-07T09:27:46.621Z,3.57
2018-03-07T09:28:53.386Z,3.57
2018-03-07T09:30:00.124Z,3.59
2018-03-07T09:31:06.962Z,3.58
2018-03-07T09:32:13.695Z,3.60
2018-03-07T09:33:20.418Z,3.64
2018-03-07T09:34:27.140Z,3.64
2018-03-07T09:35:33.981Z,3.65
2018-03-07T09:36:40.681Z,3.67
2018-03-07T09:37:47.381Z,3.68
2018-03-07T09:38:54.094Z,3.67
2018-03-07T09:40:00.853Z,3.70
2018-03-07T09:41:07.661Z,3.71
2018-03-07T09:42:14.452Z,3.73
2018-03-07T09:43:21.242Z,3.73
2018-03-07T09:44:28.041Z,3.74
2018-03-07T09:45:35.087Z,3.76
2018-03-07T09:46:42.081Z,3.75
2018-03-07T09:47:49.011Z,3.79
2018-03-07T09:48:55.858Z,3.80
2018-03-07T09:50:02.799Z,3.81
2018-03-07T09:51:09.869Z,3.83
2018-03-07T09:52:16.741Z,3.84
2018-03-07T09:53:23.561Z,3.84
2018-03-07T09:54:30.716Z,3.87
2018-03-07T09:55:37.423Z,3.88
2018-03-07T09:56:44.160Z,3.89
2018-03-07T09:57:50.869Z,3.90
2018-03-07T09:58:57.889Z,3.92
2018-03-07T10:00:04.624Z,3.93
2018-03-07T10:01:11.469Z,3.95
2018-03-07T10:02:18.873Z,3.95
2018-03-07T10:03:25.581Z,3.98
2018-03-07T10:04:32.416Z,4.00
2018-03-07T10:05:39.225Z,4.00
2018-03-07T10:06:45.942Z,4.03
2018-03-07T10:07:52.742Z,4.05
2018-03-07T10:08:59.480Z,4.04
2018-03-07T10:10:06.276Z,4.07
2018-03-07T10:11:13.138Z,4.09
2018-03-07T10:12:20.375Z,4.09
2018-03-07T10:13:26.960Z,4.12
2018-03-07T10:14:33.685Z,4.12
2018-03-07T10:15:40.400Z,4.14
2018-03-07T10:16:47.112Z,4.15
2018-03-07T10:17:53.888Z,4.18
2018-03-07T10:19:00.606Z,4.20
2018-03-07T10:20:07.316Z,4.21
2018-03-07T10:21:14.114Z,4.23
2018-03-07T10:22:21.256Z,4.25
2018-03-07T10:23:28.076Z,4.26
2018-03-07T10:24:34.784Z,4.28
2018-03-07T10:25:41.589Z,4.29
2018-03-07T10:26:48.429Z,4.30
2018-03-07T10:27:55.166Z,4.31
2018-03-07T10:29:01.918Z,4.34
2018-03-07T10:30:08.872Z,4.36
2018-03-07T10:31:15.779Z,4.37
2018-03-07T10:32:22.640Z,4.39
2018-03-07T10:33:29.592Z,4.39
2018-03-07T10:34:36.545Z,4.41
2018-03-07T10:35:43.300Z,4.43
2018-03-07T10:36:50.320Z,4.44
2018-03-07T10:37:57.095Z,4.45
2018-03-07T10:39:03.853Z,4.47
2018-03-07T10:40:10.592Z,4.48
2018-03-07T10:41:17.384Z,4.49
2018-03-07T10:42:24.240Z,4.51
2018-03-07T10:43:30.987Z,4.52
2018-03-07T10:44:37.755Z,4.53
2018-03-07T10:45:44.600Z,4.54
2018-03-07T10:46:51.360Z,4.56
2018-03-07T10:47:58.127Z,4.56
2018-03-07T10:49:05.112Z,4.57
2018-03-07T10:50:11.853Z,4.61
2018-03-07T10:51:18.615Z,4.61
2018-03-07T10:52:25.788Z,4.64
2018-03-07T10:53:32.545Z,4.65
2018-03-07T10:54:39.311Z,4.66
2018-03-07T10:55:46.084Z,4.67
2018-03-07T10:56:52.813Z,4.69
2018-03-07T10:57:59.556Z,4.70
2018-03-07T10:59:06.324Z,4.71
2018-03-07T11:00:13.037Z,4.73
2018-03-07T11:01:20.203Z,4.73
2018-03-07T11:02:26.924Z,4.75
2018-03-07T11:03:38.764Z,4.76
2018-03-07T11:04:45.465Z,4.78
2018-03-07T11:05:47.295Z,4.79
2018-03-07T11:06:54.070Z,4.80
2018-03-07T11:08:00.944Z,4.81
2018-03-07T11:09:07.820Z,4.83
2018-03-07T11:10:14.714Z,4.85
2018-03-07T11:11:21.544Z,4.85
2018-03-07T11:12:28.364Z,4.87
2018-03-07T11:13:35.292Z,4.87
2018-03-07T11:14:42.056Z,4.90
2018-03-07T11:15:48.776Z,4.92
2018-03-07T11:16:55.677Z,4.92
2018-03-07T11:18:02.432Z,4.94
2018-03-07T11:19:09.244Z,4.93
2018-03-07T11:20:16.063Z,4.96
2018-03-07T11:21:22.773Z,4.97
2018-03-07T11:22:29.564Z,4.99
2018-03-07T11:23:36.264Z,4.99
2018-03-07T11:24:43.066Z,5.00
2018-03-07T11:25:49.823Z,5.01
2018-03-07T11:26:56.577Z,5.03
2018-03-07T11:28:03.321Z,5.04
2018-03-07T11:29:10.062Z,5.06
2018-03-07T11:30:16.809Z,5.07
2018-03-07T11:31:23.546Z,5.07
2018-03-07T11:32:30.264Z,5.09
2018-03-07T11:33:37.056Z,5.11
2018-03-07T11:34:43.772Z,5.11
2018-03-07T11:35:50.536Z,5.13
2018-03-07T11:36:57.255Z,5.14
2018-03-07T11:38:05.621Z,5.15
2018-03-07T11:39:10.857Z,5.15
2018-03-07T11:40:17.601Z,5.17
2018-03-07T11:41:24.380Z,5.19
2018-03-07T11:42:31.129Z,5.19
2018-03-07T11:43:37.848Z,5.20
2018-03-07T11:44:44.661Z,5.22
2018-03-07T11:45:51.380Z,5.24
2018-03-07T11:46:58.136Z,5.25
2018-03-07T11:48:04.915Z,5.26
2018-03-07T11:49:11.637Z,5.28
2018-03-07T11:50:18.349Z,5.29
2018-03-07T11:51:25.136Z,5.30
2018-03-07T11:52:31.884Z,5.32
2018-03-07T11:53:38.643Z,5.34
2018-03-07T11:54:45.347Z,5.35
2018-03-07T11:55:52.120Z,5.36
2018-03-07T11:56:58.865Z,5.37
2018-03-07T11:58:05.609Z,5.38
2018-03-07T11:59:12.348Z,5.39
2018-03-07T12:00:19.144Z,5.40
2018-03-07T12:01:25.877Z,5.41
2018-03-07T12:02:32.964Z,5.42
2018-03-07T12:03:39.722Z,5.42
2018-03-07T12:04:46.549Z,5.46
2018-03-07T12:05:53.300Z,5.46
2018-03-07T12:07:00.033Z,5.49
2018-03-07T12:08:06.851Z,5.49
2018-03-07T12:09:13.687Z,5.49
2018-03-07T12:10:20.453Z,5.50
2018-03-07T12:11:27.456Z,5.51
2018-03-07T12:12:34.232Z,5.55
2018-03-07T12:13:41.061Z,5.55
2018-03-07T12:14:47.824Z,5.57
2018-03-07T12:15:54.554Z,5.57
2018-03-07T12:17:01.331Z,5.59
2018-03-07T12:18:08.106Z,5.60
2018-03-07T12:19:14.831Z,5.61
2018-03-07T12:20:21.660Z,5.62
2018-03-07T12:21:28.408Z,5.65
2018-03-07T12:22:35.235Z,5.65
2018-03-07T12:23:42.057Z,5.67
2018-03-07T12:24:48.806Z,5.68
2018-03-07T12:25:55.577Z,5.68
2018-03-07T12:27:02.307Z,5.68
2018-03-07T12:28:09.056Z,5.71
2018-03-07T12:29:15.808Z,5.72
2018-03-07T12:30:22.557Z,5.71
2018-03-07T12:31:29.275Z,5.73
2018-03-07T12:32:36.012Z,5.75
2018-03-07T12:33:42.743Z,5.76
2018-03-07T12:34:49.513Z,5.77
2018-03-07T12:35:56.278Z,5.78
2018-03-07T12:37:03.026Z,5.81
2018-03-07T12:38:09.735Z,5.81
2018-03-07T12:39:16.568Z,5.81
2018-03-07T12:40:23.296Z,5.82
2018-03-07T12:41:30.026Z,5.83
2018-03-07T12:42:36.759Z,5.86
2018-03-07T12:43:43.505Z,5.87
2018-03-07T12:44:50.606Z,5.89
2018-03-07T12:45:57.328Z,5.89
2018-03-07T12:47:04.113Z,5.90
2018-03-07T12:48:10.861Z,5.92
2018-03-07T12:49:17.695Z,5.93
2018-03-07T12:50:24.511Z,5.95
2018-03-07T12:51:31.226Z,5.96
2018-03-07T12:52:37.992Z,5.96
2018-03-07T12:53:44.844Z,5.99
2018-03-07T12:54:51.592Z,5.98
2018-03-07T12:55:58.340Z,6.01
2018-03-07T12:57:05.089Z,6.01
2018-03-07T12:58:12.093Z,6.04
2018-03-07T12:59:18.931Z,6.04
2018-03-07T13:00:25.644Z,6.05
2018-03-07T13:01:32.355Z,6.06
2018-03-07T13:02:39.111Z,6.08
2018-03-07T13:03:45.820Z,6.08
2018-03-07T13:04:52.601Z,6.09
2018-03-07T13:05:59.316Z,6.11
2018-03-07T13:07:06.065Z,6.12
2018-03-07T13:08:12.792Z,6.13
2018-03-07T13:09:19.561Z,6.14
2018-03-07T13:10:26.371Z,6.15
2018-03-07T13:11:33.234Z,6.16
2018-03-07T13:12:40.043Z,6.18
2018-03-07T13:13:46.848Z,6.20
2018-03-07T13:14:53.592Z,6.21
2018-03-07T13:16:00.368Z,6.21
2018-03-07T13:17:07.097Z,6.24
2018-03-07T13:18:13.817Z,6.25
2018-03-07T13:19:20.527Z,6.27
2018-03-07T13:20:27.264Z,6.28
2018-03-07T13:21:34.057Z,6.29
2018-03-07T13:22:40.773Z,6.28
2018-03-07T13:23:47.516Z,6.30
2018-03-07T13:24:54.244Z,6.32
2018-03-07T13:26:01.036Z,6.32
2018-03-07T13:27:07.820Z,6.33
2018-03-07T13:28:14.549Z,6.34
2018-03-07T13:29:21.376Z,6.36
2018-03-07T13:30:28.128Z,6.35
2018-03-07T13:31:34.883Z,6.36
2018-03-07T13:32:41.600Z,6.37
2018-03-07T13:33:48.761Z,6.39
2018-03-07T13:34:55.484Z,6.40
2018-03-07T13:36:02.225Z,6.40
2018-03-07T13:37:09.236Z,6.42
2018-03-07T13:38:15.937Z,6.44
2018-03-07T13:39:22.725Z,6.45
2018-03-07T13:40:29.456Z,6.44
2018-03-07T13:41:36.293Z,6.45
2018-03-07T13:42:43.088Z,6.47
2018-03-07T13:43:49.820Z,6.47
2018-03-07T13:44:56.511Z,6.48
2018-03-07T13:46:03.412Z,6.49
2018-03-07T13:47:10.189Z,6.50
2018-03-07T13:48:16.912Z,6.50
2018-03-07T13:49:23.692Z,6.52
2018-03-07T13:50:30.406Z,6.53
2018-03-07T13:51:37.161Z,6.54
2018-03-07T13:52:43.908Z,6.56
2018-03-07T13:53:50.700Z,6.55
2018-03-07T13:54:57.439Z,6.58
2018-03-07T13:56:04.204Z,6.58
2018-03-07T13:57:10.948Z,6.59
2018-03-07T13:58:17.705Z,6.60
2018-03-07T13:59:24.455Z,6.61
2018-03-07T14:00:31.180Z,6.62
2018-03-07T14:01:37.965Z,6.62
2018-03-07T14:02:44.735Z,6.63
2018-03-07T14:03:51.464Z,6.64
2018-03-07T14:04:58.189Z,6.64
2018-03-07T14:06:04.928Z,6.66
2018-03-07T14:07:11.821Z,6.67
2018-03-07T14:08:18.618Z,6.68
2018-03-07T14:09:25.363Z,6.68
2018-03-07T14:10:32.104Z,6.69
2018-03-07T14:11:38.950Z,6.69
2018-03-07T14:12:45.872Z,6.69
2018-03-07T14:13:52.990Z,6.71
2018-03-07T14:14:59.776Z,6.71
2018-03-07T14:16:06.523Z,6.73
2018-03-07T14:17:13.244Z,6.72
2018-03-07T14:18:19.993Z,6.72
2018-03-07T14:19:26.751Z,6.75
2018-03-07T14:20:33.460Z,6.74
2018-03-07T14:21:40.181Z,6.74
2018-03-07T14:22:46.958Z,6.76
2018-03-07T14:23:53.703Z,6.79
2018-03-07T14:25:00.457Z,6.78
2018-03-07T14:26:07.186Z,6.78
2018-03-07T14:27:13.964Z,6.79
2018-03-07T14:28:20.695Z,6.81
2018-03-07T14:29:27.408Z,6.81
2018-03-07T14:30:34.153Z,6.81
2018-03-07T14:31:40.841Z,6.82
2018-03-07T14:32:47.652Z,6.81
2018-03-07T14:33:54.351Z,6.83
2018-03-07T14:35:01.056Z,6.84
2018-03-07T14:36:07.882Z,6.84
2018-03-07T14:37:14.669Z,6.85
2018-03-07T14:38:21.372Z,6.85
2018-03-07T14:39:28.144Z,6.86
2018-03-07T14:40:34.848Z,6.86
2018-03-07T14:41:41.544Z,6.87
2018-03-07T14:42:48.323Z,6.88
2018-03-07T14:43:54.994Z,6.88
2018-03-07T14:45:01.709Z,6.88
2018-03-07T14:46:08.400Z,6.88
2018-03-07T14:47:15.119Z,6.89
2018-03-07T14:48:22.026Z,6.89
2018-03-07T14:49:28.716Z,6.89
2018-03-07T14:50:35.441Z,6.91